Time;durP1;ratioP1;P1;durP2;ratioP2;P2;SDS_P1;SDS_P2;PMS_P1;PMS_P2;Temp;Humidity;BMP_temperature;BMP_pressure;BME280_temperature;BME280_humidity;BME280_pressure;Samples;Min_cycle;Max_cycle;Signal;HPM_P1;HPM_P2
2022/07/13 00:01:58;;;;;;;9.25;7.88;;;20.60;99.90;;;;;;5022631;28;20052;-78
2022/07/13 00:04:23;;;;;;;10.63;7.63;;;20.60;99.90;;;;;;5026084;28;20033;-78
2022/07/13 00:06:49;;;;;;;10.02;7.60;;;20.60;99.90;;;;;;5014334;28;20040;-79
2022/07/13 00:09:15;;;;;;;9.40;7.93;;;20.60;99.90;;;;;;5023991;28;20049;-79
2022/07/13 00:11:40;;;;;;;10.40;6.97;;;20.60;99.90;;;;;;5030846;28;20088;-78
2022/07/13 00:14:06;;;;;;;11.48;7.82;;;20.60;99.90;;;;;;5023381;28;20417;-78
2022/07/13 00:16:31;;;;;;;8.45;7.35;;;20.60;99.90;;;;;;5050741;28;20045;-79
2022/07/13 00:18:57;;;;;;;10.00;7.70;;;20.70;99.90;;;;;;5023178;28;20037;-79
2022/07/13 00:21:23;;;;;;;8.52;7.50;;;20.60;99.90;;;;;;5025707;28;20099;-78
2022/07/13 00:23:49;;;;;;;9.50;8.05;;;20.60;99.90;;;;;;5024036;28;20042;-80
2022/07/13 00:26:14;;;;;;;9.60;8.35;;;20.60;99.90;;;;;;5029756;28;20104;-78
2022/07/13 00:28:40;;;;;;;12.93;8.32;;;20.60;99.90;;;;;;5029945;28;20034;-78
2022/07/13 00:31:06;;;;;;;9.57;7.90;;;20.60;99.90;;;;;;5028937;28;20029;-79
2022/07/13 00:33:32;;;;;;;9.70;8.35;;;20.50;99.90;;;;;;5047821;28;20036;-79
2022/07/13 00:35:58;;;;;;;9.02;7.05;;;20.50;99.90;;;;;;5038339;28;20037;-78
2022/07/13 00:38:24;;;;;;;9.43;7.93;;;20.50;99.90;;;;;;5023997;28;20453;-79
2022/07/13 00:40:49;;;;;;;9.35;7.70;;;20.50;99.90;;;;;;5027637;28;20045;-80
2022/07/13 00:43:15;;;;;;;9.60;7.63;;;20.50;99.90;;;;;;5040396;28;20405;-79
2022/07/13 00:45:41;;;;;;;9.60;8.45;;;20.50;99.90;;;;;;5027285;28;20044;-78
2022/07/13 00:48:07;;;;;;;9.90;7.57;;;20.50;99.90;;;;;;5023762;28;20029;-78
2022/07/13 00:50:33;;;;;;;9.75;7.82;;;20.50;99.90;;;;;;5023144;28;20057;-78
2022/07/13 00:52:58;;;;;;;9.18;8.27;;;20.50;99.90;;;;;;5033219;28;20065;-79
2022/07/13 00:55:25;;;;;;;9.45;8.13;;;20.40;99.90;;;;;;5021540;28;20045;-79
2022/07/13 00:57:51;;;;;;;9.27;6.82;;;20.40;99.90;;;;;;5040771;28;20243;-78
2022/07/13 01:00:17;;;;;;;9.40;7.63;;;20.40;99.90;;;;;;5000310;28;20038;-78
2022/07/13 01:02:45;;;;;;;10.23;7.93;;;20.40;99.90;;;;;;5003872;28;20041;-79
2022/07/13 01:05:13;;;;;;;10.85;7.60;;;20.40;99.90;;;;;;5041838;28;20049;-78
2022/07/13 01:07:39;;;;;;;11.40;8.90;;;20.40;99.90;;;;;;5026703;28;20041;-79
2022/07/13 01:10:08;;;;;;;12.00;8.45;;;20.40;99.90;;;;;;5040505;28;20037;-79
2022/07/13 01:12:35;;;;;;;10.52;8.02;;;20.40;99.90;;;;;;5025732;28;20043;-78
2022/07/13 01:15:02;;;;;;;12.70;9.52;;;20.40;99.90;;;;;;5012908;28;20124;-78
2022/07/13 01:17:29;;;;;;;11.30;8.23;;;20.40;99.90;;;;;;5008857;28;20033;-78
2022/07/13 01:19:58;;;;;;;11.95;8.32;;;20.40;99.90;;;;;;5019109;28;20037;-79
2022/07/13 01:22:29;;;;;;;12.55;7.93;;;20.40;99.90;;;;;;5040889;28;20061;-79
2022/07/13 01:24:55;;;;;;;8.43;7.43;;;20.40;99.90;;;;;;5023247;28;20033;-79
2022/07/13 01:27:21;;;;;;;9.75;8.75;;;20.40;99.90;;;;;;5024809;28;20111;-78
2022/07/13 01:29:47;;;;;;;10.65;8.73;;;20.30;99.90;;;;;;5014740;28;20523;-79
2022/07/13 01:32:13;;;;;;;9.02;8.13;;;20.40;99.90;;;;;;5014914;28;20053;-79
2022/07/13 01:34:39;;;;;;;11.88;8.85;;;20.40;99.90;;;;;;5003867;28;20068;-79
2022/07/13 01:37:04;;;;;;;9.80;8.80;;;20.30;99.90;;;;;;5047533;28;20067;-79
2022/07/13 01:39:30;;;;;;;10.98;8.70;;;20.30;99.90;;;;;;5039806;28;20040;-80
2022/07/13 01:41:56;;;;;;;9.48;8.35;;;20.30;99.90;;;;;;5031380;28;20045;-79
2022/07/13 01:44:21;;;;;;;11.13;8.60;;;20.30;99.90;;;;;;5025109;28;20044;-78
2022/07/13 01:46:47;;;;;;;9.60;8.45;;;20.30;99.90;;;;;;5014555;28;20033;-79
2022/07/13 01:49:12;;;;;;;12.85;8.55;;;20.30;99.90;;;;;;5014877;28;20041;-79
2022/07/13 01:51:39;;;;;;;11.18;8.57;;;20.30;99.90;;;;;;5037560;28;20465;-79
2022/07/13 01:54:05;;;;;;;12.60;8.32;;;20.30;99.90;;;;;;5015663;28;20041;-79
2022/07/13 01:56:32;;;;;;;10.35;8.05;;;20.20;99.90;;;;;;5011886;28;20489;-79
2022/07/13 01:58:59;;;;;;;8.77;7.20;;;20.20;99.90;;;;;;5028823;28;20037;-79
2022/07/13 02:01:25;;;;;;;10.63;8.40;;;20.30;99.90;;;;;;5014050;28;20045;-79
2022/07/13 02:03:50;;;;;;;8.82;7.80;;;20.20;99.90;;;;;;5037915;28;20477;-79
2022/07/13 02:06:16;;;;;;;10.50;8.43;;;20.30;99.90;;;;;;5021447;28;20042;-79
2022/07/13 02:08:42;;;;;;;11.18;8.18;;;20.20;99.90;;;;;;5030993;28;20029;-78
2022/07/13 02:11:07;;;;;;;10.50;8.70;;;20.20;99.90;;;;;;5029890;28;20478;-79
2022/07/13 02:13:33;;;;;;;9.55;8.45;;;20.20;99.90;;;;;;5031949;28;20508;-78
2022/07/13 02:15:58;;;;;;;9.55;8.07;;;20.30;99.90;;;;;;5038219;28;20034;-79
2022/07/13 02:18:25;;;;;;;9.20;7.82;;;20.20;99.90;;;;;;5013478;28;20037;-78
2022/07/13 02:20:51;;;;;;;10.18;7.43;;;20.30;99.90;;;;;;5021454;28;20041;-79
2022/07/13 02:23:16;;;;;;;10.02;8.20;;;20.30;99.90;;;;;;5032711;28;20129;-79
2022/07/13 02:25:42;;;;;;;11.43;7.63;;;20.30;99.90;;;;;;5037959;28;20059;-79
2022/07/13 02:28:08;;;;;;;10.77;8.10;;;20.50;99.90;;;;;;5043871;28;20090;-79
2022/07/13 02:30:34;;;;;;;10.88;8.73;;;20.30;99.90;;;;;;5032994;28;20033;-79
2022/07/13 02:33:00;;;;;;;9.35;8.35;;;20.30;99.90;;;;;;5013957;28;20091;-79
2022/07/13 02:35:26;;;;;;;9.90;8.85;;;20.20;99.90;;;;;;5041550;28;20443;-79
2022/07/13 02:37:52;;;;;;;10.30;8.13;;;20.20;99.90;;;;;;4996337;28;20044;-79
2022/07/13 02:40:18;;;;;;;8.98;7.75;;;20.20;99.90;;;;;;5018367;28;20148;-79
2022/07/13 02:42:44;;;;;;;11.85;8.45;;;20.30;99.90;;;;;;5024838;28;20464;-79
2022/07/13 02:45:10;;;;;;;9.98;8.52;;;20.30;99.90;;;;;;5013154;28;20045;-79
2022/07/13 02:47:36;;;;;;;10.55;7.97;;;20.30;99.90;;;;;;5013448;28;20169;-79
2022/07/13 02:50:02;;;;;;;10.95;8.27;;;20.20;99.90;;;;;;5034714;28;20048;-79
2022/07/13 02:52:28;;;;;;;10.43;8.55;;;20.20;99.90;;;;;;5020097;28;20042;-79
2022/07/13 02:54:53;;;;;;;11.80;8.90;;;20.20;99.90;;;;;;5013644;28;20129;-78
2022/07/13 02:57:19;;;;;;;11.93;8.70;;;20.20;99.90;;;;;;5040435;28;20042;-79
2022/07/13 02:59:44;;;;;;;12.52;8.63;;;20.20;99.90;;;;;;5010682;28;20076;-79
2022/07/13 03:02:10;;;;;;;9.77;8.45;;;20.20;99.90;;;;;;5039696;28;20487;-79
2022/07/13 03:04:36;;;;;;;11.80;8.80;;;20.20;99.90;;;;;;5009781;28;20038;-79
2022/07/13 03:07:02;;;;;;;8.73;7.75;;;20.20;99.90;;;;;;5005709;28;20040;-78
2022/07/13 03:09:28;;;;;;;11.65;8.68;;;20.20;99.90;;;;;;5017434;28;20120;-79
2022/07/13 03:11:54;;;;;;;9.63;8.15;;;20.20;99.90;;;;;;5012207;28;20128;-78
2022/07/13 03:14:20;;;;;;;9.80;8.70;;;20.20;99.90;;;;;;5013590;28;20493;-78
2022/07/13 03:16:45;;;;;;;11.10;8.45;;;20.20;99.90;;;;;;5031368;28;20130;-78
2022/07/13 03:19:11;;;;;;;9.80;8.38;;;20.10;99.90;;;;;;5030826;28;20428;-79
2022/07/13 03:21:45;;;;;;;10.18;8.38;;;20.10;99.90;;;;;;5019474;28;20072;-78
2022/07/13 03:24:11;;;;;;;10.43;8.32;;;20.10;99.90;;;;;;5012191;28;20045;-78
2022/07/13 03:26:37;;;;;;;11.30;8.18;;;20.10;99.90;;;;;;5006026;28;20033;-78
2022/07/13 03:29:06;;;;;;;9.60;8.60;;;20.10;99.90;;;;;;4998625;28;20484;-78
2022/07/13 03:31:32;;;;;;;13.48;8.73;;;20.10;99.90;;;;;;5031199;28;20033;-78
2022/07/13 03:33:58;;;;;;;10.00;7.75;;;20.10;99.90;;;;;;5031034;28;20111;-78
2022/07/13 03:36:23;;;;;;;9.90;8.20;;;20.20;99.90;;;;;;5020964;28;20103;-78
2022/07/13 03:38:49;;;;;;;11.07;8.82;;;20.10;99.90;;;;;;5002587;28;20045;-78
2022/07/13 03:41:15;;;;;;;10.35;7.90;;;20.10;99.90;;;;;;5021714;28;20079;-78
2022/07/13 03:43:41;;;;;;;11.70;8.55;;;20.10;99.90;;;;;;5002510;28;20042;-78
2022/07/13 03:46:07;;;;;;;9.38;8.38;;;20.10;99.90;;;;;;5005355;28;20029;-79
2022/07/13 03:48:33;;;;;;;10.40;7.90;;;20.10;99.90;;;;;;5021143;28;20033;-79
2022/07/13 03:50:58;;;;;;;10.88;8.52;;;20.10;99.90;;;;;;5033214;28;20103;-79
2022/07/13 03:53:24;;;;;;;8.68;7.28;;;20.20;99.90;;;;;;5038414;28;20037;-78
2022/07/13 03:55:49;;;;;;;10.75;8.10;;;20.10;99.90;;;;;;5015158;28;20104;-78
2022/07/13 03:58:15;;;;;;;9.82;7.35;;;20.10;99.90;;;;;;5036039;28;20037;-78
2022/07/13 04:00:41;;;;;;;12.50;7.82;;;20.10;99.90;;;;;;5016655;28;20052;-78
2022/07/13 04:03:06;;;;;;;8.80;7.85;;;20.10;99.90;;;;;;5034370;28;20061;-78
2022/07/13 04:05:32;;;;;;;8.90;7.53;;;20.10;99.90;;;;;;5016618;28;20045;-78
2022/07/13 04:07:57;;;;;;;10.63;7.80;;;20.10;99.90;;;;;;5014232;28;20470;-79
2022/07/13 04:10:23;;;;;;;9.40;8.40;;;20.10;99.90;;;;;;5019588;28;20037;-78
2022/07/13 04:12:49;;;;;;;8.93;7.70;;;20.10;99.90;;;;;;5024120;28;20576;-78
2022/07/13 04:15:15;;;;;;;10.32;8.85;;;20.10;99.90;;;;;;5025608;28;20071;-78
2022/07/13 04:17:42;;;;;;;9.50;8.50;;;20.00;99.90;;;;;;5025744;28;20037;-78
2022/07/13 04:20:09;;;;;;;11.85;8.45;;;20.10;99.90;;;;;;4999825;28;20041;-79
2022/07/13 04:22:35;;;;;;;10.55;8.60;;;20.10;99.90;;;;;;5035107;28;20037;-78
2022/07/13 04:25:02;;;;;;;10.80;8.05;;;20.00;99.90;;;;;;5024964;28;20037;-78
2022/07/13 04:27:27;;;;;;;9.95;7.75;;;20.10;99.90;;;;;;5034243;28;20038;-78
2022/07/13 04:29:53;;;;;;;11.50;8.13;;;20.10;99.90;;;;;;5014541;28;20030;-78
2022/07/13 04:32:19;;;;;;;9.50;7.72;;;20.10;99.90;;;;;;5015708;28;20132;-78
2022/07/13 04:34:44;;;;;;;9.73;8.07;;;19.80;99.90;;;;;;5015724;28;20041;-78
2022/07/13 04:37:10;;;;;;;11.32;8.68;;;20.20;99.90;;;;;;5034437;28;20042;-78
2022/07/13 04:39:38;;;;;;;11.48;8.02;;;20.10;99.90;;;;;;5020936;28;20087;-78
2022/07/13 04:42:04;;;;;;;9.05;7.65;;;20.20;99.90;;;;;;5017044;28;20072;-78
2022/07/13 04:44:30;;;;;;;10.95;8.52;;;20.20;99.90;;;;;;5020484;28;20510;-78
2022/07/13 04:46:56;;;;;;;9.52;8.35;;;20.20;99.90;;;;;;5035029;28;20117;-78
2022/07/13 04:49:22;;;;;;;8.77;7.72;;;20.20;99.90;;;;;;5026031;28;20478;-79
2022/07/13 04:51:50;;;;;;;9.77;7.20;;;20.20;99.90;;;;;;5027341;28;20094;-78
2022/07/13 04:54:20;;;;;;;9.20;7.15;;;20.20;99.90;;;;;;5015392;28;20049;-78
2022/07/13 04:56:46;;;;;;;10.00;7.43;;;20.20;99.90;;;;;;5020749;28;20040;-78
2022/07/13 04:59:12;;;;;;;9.73;6.55;;;20.20;99.90;;;;;;5018104;28;20049;-79
2022/07/13 05:01:38;;;;;;;7.97;6.93;;;20.30;99.90;;;;;;5014756;28;20040;-79
2022/07/13 05:04:04;;;;;;;7.53;6.47;;;20.30;99.90;;;;;;5015687;28;20037;-79
2022/07/13 05:06:30;;;;;;;10.88;7.07;;;20.30;99.90;;;;;;5022791;28;20057;-79
2022/07/13 05:08:56;;;;;;;8.90;6.80;;;20.30;99.90;;;;;;5022494;28;20036;-79
2022/07/13 05:11:22;;;;;;;11.80;6.63;;;20.30;99.90;;;;;;5026410;28;20555;-79
2022/07/13 05:13:48;;;;;;;8.15;6.22;;;20.40;99.90;;;;;;5033291;28;20029;-78
2022/07/13 05:16:14;;;;;;;7.97;6.00;;;20.40;99.90;;;;;;5023504;28;20056;-79
2022/07/13 05:18:40;;;;;;;8.30;5.70;;;20.40;99.90;;;;;;5025766;28;20041;-79
2022/07/13 05:21:08;;;;;;;7.57;5.53;;;20.40;99.90;;;;;;5030621;28;20037;-79
2022/07/13 05:23:39;;;;;;;7.13;5.97;;;20.40;99.90;;;;;;5036242;28;20080;-78
2022/07/13 05:26:05;;;;;;;8.88;5.78;;;20.60;99.90;;;;;;5033547;28;20050;-78
2022/07/13 05:28:31;;;;;;;9.02;5.30;;;20.50;99.90;;;;;;5018866;28;20037;-78
2022/07/13 05:30:57;;;;;;;7.70;5.20;;;20.60;99.90;;;;;;4998752;28;20118;-78
2022/07/13 05:33:22;;;;;;;6.90;4.60;;;20.60;99.90;;;;;;5025450;28;20049;-79
2022/07/13 05:35:48;;;;;;;6.28;5.18;;;20.50;99.90;;;;;;5019341;28;20034;-78
2022/07/13 05:38:14;;;;;;;8.15;5.07;;;20.60;99.90;;;;;;5004213;28;20553;-79
2022/07/13 05:40:39;;;;;;;6.38;4.72;;;20.60;99.90;;;;;;5028831;28;20513;-78
2022/07/13 05:43:06;;;;;;;18.27;5.65;;;20.60;99.90;;;;;;5042534;28;20041;-79
2022/07/13 05:45:31;;;;;;;6.20;4.80;;;20.70;99.90;;;;;;5019761;28;20037;-79
2022/07/13 05:47:57;;;;;;;8.88;4.30;;;20.70;99.90;;;;;;5049151;28;20552;-79
2022/07/13 05:50:23;;;;;;;5.90;4.30;;;20.80;99.90;;;;;;5024837;28;20033;-79
2022/07/13 05:52:48;;;;;;;5.97;4.10;;;20.80;99.90;;;;;;5045639;28;20044;-79
2022/07/13 05:55:14;;;;;;;6.30;4.22;;;20.90;99.90;;;;;;5020208;28;20095;-79
2022/07/13 05:57:40;;;;;;;6.63;4.07;;;20.90;99.90;;;;;;5025209;28;20038;-79
2022/07/13 06:00:11;;;;;;;7.35;4.38;;;21.00;99.90;;;;;;5019439;28;20110;-79
2022/07/13 06:02:39;;;;;;;5.72;3.78;;;21.10;99.90;;;;;;5019026;28;20056;-78
2022/07/13 06:05:05;;;;;;;5.03;3.90;;;21.10;99.90;;;;;;5007610;28;20489;-78
2022/07/13 06:07:31;;;;;;;5.82;4.32;;;21.10;99.90;;;;;;5028984;28;20120;-78
2022/07/13 06:09:58;;;;;;;6.88;3.90;;;21.20;99.90;;;;;;5037819;28;20060;-78
2022/07/13 06:12:33;;;;;;;7.78;4.18;;;21.20;99.90;;;;;;5015018;28;20071;-79
2022/07/13 06:14:59;;;;;;;6.65;4.07;;;21.30;99.90;;;;;;5028021;28;20033;-79
2022/07/13 06:17:25;;;;;;;7.15;4.15;;;21.30;99.90;;;;;;5023105;28;20527;-79
2022/07/13 06:19:50;;;;;;;9.32;4.45;;;21.40;99.90;;;;;;5032831;28;20037;-79
2022/07/13 06:22:16;;;;;;;6.30;4.30;;;21.40;99.90;;;;;;5015780;28;20053;-79
2022/07/13 06:24:43;;;;;;;6.53;4.00;;;21.40;99.90;;;;;;5004522;28;20037;-79
2022/07/13 06:27:09;;;;;;;5.70;4.00;;;21.50;99.90;;;;;;5010830;28;20037;-79
2022/07/13 06:29:35;;;;;;;5.40;3.90;;;21.50;99.90;;;;;;5021238;28;20025;-79
2022/07/13 06:32:01;;;;;;;5.90;3.60;;;21.50;99.90;;;;;;5023473;28;20497;-79
2022/07/13 06:34:26;;;;;;;5.43;3.72;;;21.60;99.90;;;;;;5003868;28;20048;-79
2022/07/13 06:36:52;;;;;;;5.53;4.20;;;21.50;99.90;;;;;;5011377;28;20066;-79
2022/07/13 06:39:18;;;;;;;6.65;4.10;;;21.60;99.90;;;;;;5019637;28;20045;-79
2022/07/13 06:41:48;;;;;;;7.43;4.18;;;21.60;99.90;;;;;;5027063;28;20041;-78
2022/07/13 06:44:14;;;;;;;5.32;4.22;;;21.70;99.90;;;;;;5028158;28;20483;-79
2022/07/13 06:46:40;;;;;;;5.47;3.90;;;21.80;99.90;;;;;;5039756;28;20037;-78
2022/07/13 06:49:11;;;;;;;5.70;4.28;;;21.80;99.90;;;;;;5020858;28;20033;-78
2022/07/13 06:51:36;;;;;;;6.35;4.53;;;21.90;99.90;;;;;;5021646;28;20099;-77
2022/07/13 06:54:02;;;;;;;9.38;5.57;;;22.00;99.90;;;;;;5020726;28;20497;-78
2022/07/13 06:56:28;;;;;;;12.75;6.20;;;22.10;99.90;;;;;;5041785;28;20048;-78
2022/07/13 06:58:54;;;;;;;10.50;6.40;;;22.20;99.90;;;;;;5035999;28;20041;-78
2022/07/13 07:01:19;;;;;;;11.93;6.40;;;22.30;99.90;;;;;;5037755;28;20120;-79
2022/07/13 07:03:45;;;;;;;9.70;6.55;;;22.40;99.90;;;;;;5015126;28;20057;-79
2022/07/13 07:06:11;;;;;;;12.10;7.20;;;22.40;99.90;;;;;;5019857;28;20033;-78
2022/07/13 07:08:36;;;;;;;11.02;7.15;;;22.40;99.90;;;;;;5015992;28;20037;-78
2022/07/13 07:11:03;;;;;;;9.73;6.82;;;22.50;99.90;;;;;;5024609;28;20052;-78
2022/07/13 07:13:29;;;;;;;12.23;7.25;;;22.60;99.90;;;;;;5034950;28;20124;-78
2022/07/13 07:15:54;;;;;;;8.88;6.88;;;22.60;99.90;;;;;;5017879;28;20060;-78
2022/07/13 07:18:21;;;;;;;10.23;7.80;;;22.60;99.90;;;;;;5022916;28;20050;-78
2022/07/13 07:20:48;;;;;;;11.32;8.63;;;22.70;99.90;;;;;;5018163;28;20060;-78
2022/07/13 07:23:14;;;;;;;14.45;8.98;;;22.70;99.90;;;;;;5031740;28;20049;-78
2022/07/13 07:25:40;;;;;;;12.85;9.25;;;22.60;99.90;;;;;;5026336;28;20132;-78
2022/07/13 07:28:07;;;;;;;14.38;9.18;;;22.60;99.90;;;;;;5020320;28;20045;-79
2022/07/13 07:30:33;;;;;;;10.70;9.18;;;22.60;99.90;;;;;;5004222;28;20037;-78
2022/07/13 07:32:58;;;;;;;12.73;8.98;;;22.70;99.90;;;;;;5031639;28;20091;-78
2022/07/13 07:35:24;;;;;;;12.65;8.65;;;22.60;99.90;;;;;;5034202;28;20045;-78
2022/07/13 07:37:50;;;;;;;13.02;9.00;;;22.70;99.90;;;;;;5018683;28;20077;-79
2022/07/13 07:40:16;;;;;;;11.90;9.10;;;22.70;99.90;;;;;;5035839;28;20037;-78
2022/07/13 07:42:41;;;;;;;13.38;9.43;;;22.70;99.90;;;;;;5037883;28;20123;-78
2022/07/13 07:45:08;;;;;;;11.30;8.80;;;22.80;99.90;;;;;;5016696;28;20045;-79
2022/07/13 07:47:34;;;;;;;13.15;9.18;;;22.80;99.90;;;;;;5024213;28;20108;-79
2022/07/13 07:49:59;;;;;;;11.18;8.25;;;22.80;99.90;;;;;;5003709;28;20038;-79
2022/07/13 07:52:25;;;;;;;13.00;9.32;;;22.80;99.90;;;;;;5003983;28;20037;-78
2022/07/13 07:54:51;;;;;;;13.68;9.68;;;22.70;99.90;;;;;;5035639;28;20053;-78
2022/07/13 07:57:17;;;;;;;14.40;9.20;;;22.80;99.90;;;;;;5014045;28;20091;-78
2022/07/13 07:59:43;;;;;;;12.32;9.70;;;22.90;99.90;;;;;;5036410;28;20030;-78
2022/07/13 08:02:10;;;;;;;12.98;8.98;;;22.90;99.90;;;;;;5023406;28;20041;-78
2022/07/13 08:04:35;;;;;;;15.35;8.93;;;22.90;99.90;;;;;;5008900;28;20427;-78
2022/07/13 08:07:07;;;;;;;13.90;9.18;;;22.90;99.90;;;;;;5016603;28;20095;-79
2022/07/13 08:09:34;;;;;;;12.70;8.80;;;23.00;99.90;;;;;;5041688;28;20052;-79
2022/07/13 08:12:04;;;;;;;11.05;8.20;;;23.10;99.90;;;;;;5028978;28;20497;-79
2022/07/13 08:14:36;;;;;;;14.80;8.98;;;23.20;99.90;;;;;;5022027;28;20409;-79
2022/07/13 08:17:09;;;;;;;12.45;7.97;;;23.20;99.90;;;;;;5029999;28;20559;-79
2022/07/13 08:19:37;;;;;;;12.30;8.55;;;23.30;99.90;;;;;;5027932;28;20048;-78
2022/07/13 08:22:03;;;;;;;13.05;9.95;;;23.40;99.90;;;;;;5028076;28;20057;-78
2022/07/13 08:24:28;;;;;;;13.23;9.10;;;23.50;99.90;;;;;;5021755;28;20047;-78
2022/07/13 08:26:54;;;;;;;12.45;8.63;;;23.60;99.90;;;;;;5032528;28;20037;-78
2022/07/13 08:29:20;;;;;;;11.63;8.48;;;23.80;99.90;;;;;;5034941;28;20064;-79
2022/07/13 08:31:45;;;;;;;11.25;8.45;;;24.00;99.90;;;;;;5019319;28;20473;-79
2022/07/13 08:39:39;;;;;;;9.95;7.78;;;24.70;99.90;;;;;;5029816;28;20076;-79
2022/07/13 08:42:12;;;;;;;13.48;7.72;;;25.00;99.90;;;;;;5022002;28;20127;-79
2022/07/13 08:44:38;;;;;;;10.25;7.85;;;25.30;99.90;;;;;;5050745;28;20112;-79
2022/07/13 08:47:06;;;;;;;12.90;8.57;;;25.60;99.90;;;;;;5036930;28;20045;-79
2022/07/13 08:49:31;;;;;;;9.18;6.85;;;25.80;99.90;;;;;;5033187;28;20072;-79
2022/07/13 08:51:58;;;;;;;11.43;7.07;;;26.00;99.90;;;;;;5025897;28;20041;-78
2022/07/13 08:54:24;;;;;;;9.57;6.93;;;26.10;99.90;;;;;;5027980;28;20038;-78
2022/07/13 08:56:49;;;;;;;13.18;7.20;;;26.20;99.90;;;;;;5030495;28;20608;-79
2022/07/13 08:59:15;;;;;;;8.95;6.38;;;26.40;99.90;;;;;;5036451;28;20054;-79
2022/07/13 09:01:41;;;;;;;9.88;6.47;;;26.40;99.90;;;;;;5022368;28;20049;-79
2022/07/13 09:04:11;;;;;;;10.15;6.10;;;26.50;99.90;;;;;;5037438;28;20038;-79
2022/07/13 09:06:40;;;;;;;8.00;5.60;;;26.60;99.90;;;;;;5030253;28;20069;-79
2022/07/13 09:09:07;;;;;;;10.07;6.05;;;26.70;99.90;;;;;;5007380;28;20033;-79
2022/07/13 09:11:33;;;;;;;7.47;5.50;;;27.00;99.90;;;;;;5024485;28;20202;-80
2022/07/13 09:13:59;;;;;;;9.85;5.68;;;27.20;99.90;;;;;;5016614;28;20073;-79
2022/07/13 09:16:26;;;;;;;13.45;6.22;;;27.30;99.90;;;;;;5035158;28;20044;-79
2022/07/13 09:18:55;;;;;;;9.68;5.93;;;27.40;99.90;;;;;;5038675;28;20068;-79
2022/07/13 09:21:23;;;;;;;8.10;5.47;;;27.30;99.90;;;;;;5034540;28;20041;-80
2022/07/13 09:23:53;;;;;;;8.93;5.75;;;27.40;99.90;;;;;;5016601;28;20084;-79
2022/07/13 09:26:21;;;;;;;9.48;5.68;;;27.30;99.70;;;;;;5019113;28;20508;-80
2022/07/13 09:28:49;;;;;;;9.27;6.15;;;27.40;99.90;;;;;;5018332;28;20485;-77
2022/07/13 09:31:16;;;;;;;8.57;5.45;;;27.50;99.60;;;;;;5009774;28;20485;-78
2022/07/13 09:33:43;;;;;;;7.45;4.78;;;27.70;99.10;;;;;;5009283;28;20048;-77
2022/07/13 09:36:17;;;;;;;6.85;5.18;;;27.80;99.20;;;;;;5020179;28;20045;-77
2022/07/13 09:38:51;;;;;;;7.15;5.28;;;27.90;98.70;;;;;;5013003;28;20539;-77
2022/07/13 09:41:26;;;;;;;6.65;5.10;;;28.20;98.70;;;;;;5007412;28;20049;-77
2022/07/13 09:47:04;;;;;;;9.10;4.40;;;28.40;97.10;;;;;;5020823;28;20038;-77
2022/07/13 09:49:41;;;;;;;7.45;4.78;;;28.70;97.20;;;;;;5027669;28;20119;-77
2022/07/13 09:52:12;;;;;;;7.53;4.72;;;29.00;96.30;;;;;;5031209;28;20041;-77
2022/07/13 09:54:42;;;;;;;8.70;4.80;;;29.20;95.90;;;;;;5002935;28;20036;-77
2022/07/13 09:57:13;;;;;;;8.85;5.28;;;29.30;95.00;;;;;;5015469;28;20037;-77
2022/07/13 09:59:42;;;;;;;10.88;4.90;;;29.20;95.10;;;;;;5036226;28;20041;-77
2022/07/13 10:02:08;;;;;;;6.32;4.50;;;29.10;94.40;;;;;;5024267;28;20056;-77
2022/07/13 10:04:37;;;;;;;6.07;4.40;;;29.20;94.60;;;;;;5020507;28;20095;-77
2022/07/13 10:07:08;;;;;;;12.32;5.15;;;29.20;94.30;;;;;;5021319;28;20037;-77
2022/07/13 10:09:37;;;;;;;7.93;4.38;;;29.20;93.80;;;;;;5003766;28;20057;-77
2022/07/13 10:12:07;;;;;;;7.85;4.72;;;29.00;94.20;;;;;;5017376;28;20541;-77
2022/07/13 10:14:33;;;;;;;6.43;4.50;;;28.90;94.80;;;;;;5021236;28;20056;-77
2022/07/13 10:17:06;;;;;;;6.45;4.43;;;29.00;94.70;;;;;;5032905;28;20041;-77
2022/07/13 10:19:33;;;;;;;8.27;4.40;;;28.90;94.00;;;;;;5014296;28;20045;-77
2022/07/13 10:21:59;;;;;;;6.63;4.60;;;29.00;94.40;;;;;;5036304;28;20037;-77
2022/07/13 10:24:28;;;;;;;7.32;4.50;;;29.20;94.20;;;;;;5017760;28;20500;-77
2022/07/13 10:27:26;;;;;;;8.65;4.50;;;29.30;93.70;;;;;;5016887;28;20041;-77
2022/07/13 10:30:03;;;;;;;7.88;4.00;;;29.30;91.60;;;;;;4999567;28;20029;-77
2022/07/13 10:32:31;;;;;;;10.65;4.30;;;29.20;92.00;;;;;;5034778;28;20037;-77
2022/07/13 10:35:03;;;;;;;6.20;4.60;;;29.30;91.80;;;;;;5025296;28;20554;-77
2022/07/13 10:37:29;;;;;;;8.70;4.60;;;29.30;90.50;;;;;;4999895;28;20060;-77
2022/07/13 10:40:14;;;;;;;5.20;3.92;;;29.20;90.90;;;;;;5000915;28;20513;-77
2022/07/13 10:43:00;;;;;;;6.90;4.40;;;29.10;91.90;;;;;;5021177;28;20276;-77
2022/07/13 10:45:52;;;;;;;9.98;4.97;;;29.20;91.40;;;;;;4993548;28;20123;-77
2022/07/13 10:48:24;;;;;;;8.45;4.93;;;29.20;91.60;;;;;;5018362;28;20045;-77
2022/07/13 10:50:52;;;;;;;6.38;4.28;;;29.40;91.60;;;;;;5020276;28;20051;-77
2022/07/13 10:53:19;;;;;;;6.38;3.80;;;29.60;90.80;;;;;;5013558;28;20054;-77
2022/07/13 10:55:47;;;;;;;6.68;3.47;;;29.80;90.20;;;;;;5032183;28;20073;-77
2022/07/13 10:58:31;;;;;;;6.60;4.10;;;30.00;89.90;;;;;;5019741;28;20383;-77
2022/07/13 11:01:01;;;;;;;5.75;3.83;;;30.40;86.20;;;;;;5010163;28;20045;-77
2022/07/13 11:03:35;;;;;;;5.80;3.22;;;30.50;86.40;;;;;;5031307;28;20037;-78
2022/07/13 11:06:15;;;;;;;10.70;4.72;;;30.70;86.10;;;;;;5017399;28;20041;-77
2022/07/13 11:08:41;;;;;;;6.00;3.53;;;31.00;84.40;;;;;;5016884;28;20072;-77
2022/07/13 11:11:15;;;;;;;5.68;3.20;;;31.20;83.30;;;;;;5026929;28;20037;-77
2022/07/13 11:13:46;;;;;;;8.38;3.33;;;31.20;80.60;;;;;;5016437;28;20052;-77
2022/07/13 11:16:13;;;;;;;;;;;31.30;80.60;;;;;;5011411;28;20041;-77
2022/07/13 11:18:40;;;;;;;6.50;2.50;;;31.20;75.40;;;;;;5014734;28;20308;-77
2022/07/13 11:21:19;;;;;;;4.40;2.20;;;31.20;77.90;;;;;;5000520;28;20037;-77
2022/07/13 11:26:48;;;;;;;2.47;2.15;;;31.20;73.60;;;;;;5011671;28;20045;-77
2022/07/13 11:29:24;;;;;;;3.15;2.08;;;31.10;70.70;;;;;;5022567;28;20051;-77
2022/07/13 11:32:01;;;;;;;2.28;2.08;;;31.10;70.50;;;;;;5012587;28;20033;-77
2022/07/13 11:34:28;;;;;;;3.33;2.10;;;31.10;69.00;;;;;;5019356;28;20155;-77
2022/07/13 11:36:55;;;;;;;4.13;2.10;;;31.20;68.90;;;;;;4997656;28;20037;-77
2022/07/13 11:39:21;;;;;;;2.95;2.20;;;31.20;67.30;;;;;;5020886;28;20048;-78
2022/07/13 11:41:53;;;;;;;3.35;2.00;;;31.30;66.10;;;;;;5014912;28;20434;-77
2022/07/13 11:44:25;;;;;;;4.15;2.20;;;31.20;64.90;;;;;;5026858;28;20045;-77
2022/07/13 11:46:52;;;;;;;2.95;2.00;;;31.20;64.70;;;;;;5020362;28;20044;-77
2022/07/13 11:49:18;;;;;;;3.60;2.20;;;31.30;64.90;;;;;;5019375;28;20067;-77
2022/07/13 11:51:44;;;;;;;5.47;2.20;;;31.10;65.00;;;;;;5027489;28;20033;-77
2022/07/13 11:54:18;;;;;;;4.50;2.10;;;31.20;64.90;;;;;;5015400;28;20049;-77
2022/07/13 11:56:58;;;;;;;3.88;2.22;;;31.30;62.80;;;;;;5017494;28;20041;-77
2022/07/13 11:59:33;;;;;;;2.63;2.05;;;31.30;63.70;;;;;;5007816;28;20498;-77
2022/07/13 12:02:02;;;;;;;4.28;2.08;;;31.40;63.80;;;;;;5014590;28;20095;-77
2022/07/13 12:04:28;;;;;;;4.60;2.28;;;31.40;63.90;;;;;;5003437;28;20066;-77
2022/07/13 12:07:08;;;;;;;3.83;2.20;;;31.30;63.00;;;;;;4998106;28;20413;-77
2022/07/13 12:09:34;;;;;;;3.75;2.10;;;31.20;63.00;;;;;;5035406;28;20543;-77
2022/07/13 12:12:00;;;;;;;6.07;2.53;;;31.10;63.80;;;;;;5015413;28;20060;-77
2022/07/13 12:14:26;;;;;;;4.20;2.03;;;30.90;63.40;;;;;;5026774;28;20036;-77
2022/07/13 12:16:51;;;;;;;3.95;1.90;;;30.90;63.70;;;;;;5012628;28;20489;-77
2022/07/13 12:19:19;;;;;;;3.55;2.35;;;31.00;64.00;;;;;;5032965;28;20561;-77
2022/07/13 12:21:58;;;;;;;3.97;2.30;;;31.30;63.80;;;;;;5011670;28;20036;-76
2022/07/13 12:24:24;;;;;;;6.43;2.20;;;31.30;62.10;;;;;;5010099;28;20034;-76
2022/07/13 12:26:53;;;;;;;3.42;2.15;;;31.40;62.90;;;;;;5007764;28;20038;-76
2022/07/13 12:29:29;;;;;;;5.90;2.28;;;31.40;63.00;;;;;;5038162;28;20405;-77
2022/07/13 12:31:54;;;;;;;5.93;2.60;;;31.60;63.40;;;;;;4994295;28;20202;-77
2022/07/13 12:34:20;;;;;;;3.80;2.10;;;31.60;62.90;;;;;;5015368;28;20519;-77
2022/07/13 12:36:55;;;;;;;4.70;2.35;;;31.70;62.80;;;;;;4995650;28;20124;-77
2022/07/13 12:39:36;;;;;;;3.20;2.13;;;31.60;62.10;;;;;;5032438;28;20108;-77
2022/07/13 12:42:03;;;;;;;4.13;2.55;;;31.70;63.00;;;;;;5038525;28;20375;-77
2022/07/13 12:44:30;;;;;;;2.28;2.00;;;31.80;63.70;;;;;;4999634;28;20098;-77
2022/07/13 12:46:58;;;;;;;4.60;2.13;;;31.70;63.00;;;;;;5029843;28;20084;-77
2022/07/13 12:49:37;;;;;;;5.03;2.50;;;31.50;62.70;;;;;;5007441;28;20489;-78
2022/07/13 12:52:05;;;;;;;4.47;2.45;;;31.20;62.50;;;;;;5016177;28;20037;-77
2022/07/13 12:54:53;;;;;;;3.88;2.30;;;31.00;63.40;;;;;;5006036;28;20412;-77
2022/07/13 12:57:26;;;;;;;3.45;2.17;;;30.80;64.50;;;;;;5028857;28;20084;-77